createdAt,value
2023-03-19T00:02:12.205Z,4.20
2023-03-19T00:04:43.955Z,3.78
2023-03-19T00:07:11.289Z,3.97
2023-03-19T00:09:38.588Z,3.72
2023-03-19T00:12:08.069Z,4.93
2023-03-19T00:14:35.079Z,4.72
2023-03-19T00:17:03.609Z,4.45
2023-03-19T00:19:31.722Z,4.25
2023-03-19T00:21:58.986Z,4.70
2023-03-19T00:24:27.263Z,4.43
2023-03-19T00:26:54.489Z,4.47
2023-03-19T00:29:23.408Z,4.40
2023-03-19T00:31:50.435Z,4.80
2023-03-19T00:34:17.818Z,4.13
2023-03-19T00:36:45.472Z,4.53
2023-03-19T00:39:12.981Z,4.93
2023-03-19T00:41:39.981Z,4.72
2023-03-19T00:44:06.939Z,4.95
2023-03-19T00:46:35.523Z,4.30
2023-03-19T00:49:02.511Z,4.50
2023-03-19T00:51:29.482Z,4.63
2023-03-19T00:53:56.628Z,4.80
2023-03-19T00:56:23.623Z,5.43
2023-03-19T00:58:50.840Z,4.85
2023-03-19T01:01:18.418Z,5.05
2023-03-19T01:03:46.784Z,5.40
2023-03-19T01:06:14.110Z,5.53
2023-03-19T01:08:41.460Z,5.55
2023-03-19T01:11:11.080Z,6.00
2023-03-19T01:13:38.735Z,5.35
2023-03-19T01:16:06.642Z,5.95
2023-03-19T01:18:35.086Z,5.13
2023-03-19T01:21:04.013Z,6.72
2023-03-19T01:23:31.479Z,5.93
2023-03-19T01:25:58.696Z,6.90
2023-03-19T01:28:26.057Z,6.13
2023-03-19T01:30:53.325Z,6.40
2023-03-19T01:33:20.406Z,6.55
2023-03-19T01:35:47.663Z,6.88
2023-03-19T01:38:16.356Z,6.60
2023-03-19T01:40:47.055Z,7.40
2023-03-19T01:43:17.181Z,6.95
2023-03-19T01:45:46.202Z,7.07
2023-03-19T01:48:20.518Z,6.93
2023-03-19T01:50:48.471Z,7.60
2023-03-19T01:53:18.686Z,7.18
2023-03-19T01:55:46.770Z,8.43
2023-03-19T01:58:14.311Z,8.70
2023-03-19T02:00:41.528Z,8.95
2023-03-19T02:03:09.456Z,9.23
2023-03-19T02:05:37.860Z,9.70
2023-03-19T02:08:07.739Z,9.93
2023-03-19T02:10:37.169Z,9.32
2023-03-19T02:13:04.360Z,9.90
2023-03-19T02:15:31.481Z,10.70
2023-03-19T02:17:58.692Z,10.85
2023-03-19T02:20:29.805Z,10.77
2023-03-19T02:23:09.996Z,10.52
2023-03-19T02:25:46.039Z,11.32
2023-03-19T02:28:17.285Z,11.00
2023-03-19T02:30:45.219Z,11.23
2023-03-19T02:33:13.903Z,11.55
2023-03-19T02:35:42.068Z,10.77
2023-03-19T02:38:09.444Z,12.68
2023-03-19T02:40:41.459Z,12.30
2023-03-19T02:43:09.892Z,12.07
2023-03-19T02:45:38.320Z,12.98
2023-03-19T02:48:05.790Z,13.23
2023-03-19T02:50:33.108Z,13.10
2023-03-19T02:53:00.268Z,12.88
2023-03-19T02:55:27.525Z,12.88
2023-03-19T02:58:00.805Z,13.70
2023-03-19T03:00:27.891Z,13.43
2023-03-19T03:03:04.770Z,14.13
2023-03-19T03:05:31.805Z,13.88
2023-03-19T03:08:05.775Z,13.57
2023-03-19T03:10:35.200Z,14.00
2023-03-19T03:13:08.816Z,12.90
2023-03-19T03:15:36.125Z,13.85
2023-03-19T03:18:04.823Z,13.10
2023-03-19T03:20:31.946Z,13.38
2023-03-19T03:22:59.000Z,13.25
2023-03-19T03:25:26.095Z,14.20
2023-03-19T03:27:53.128Z,14.20
2023-03-19T03:30:20.552Z,12.60
2023-03-19T03:32:47.645Z,14.15
2023-03-19T03:35:16.054Z,13.80
2023-03-19T03:37:43.002Z,13.25
2023-03-19T03:40:11.037Z,12.95
2023-03-19T03:42:38.033Z,14.68
2023-03-19T03:45:05.731Z,14.98
2023-03-19T03:47:32.818Z,13.93
2023-03-19T03:49:59.933Z,14.98
2023-03-19T03:52:28.357Z,14.88
2023-03-19T03:54:55.306Z,15.13
2023-03-19T03:57:22.271Z,15.43
2023-03-19T03:59:49.413Z,15.23
2023-03-19T04:02:16.936Z,16.10
2023-03-19T04:04:44.025Z,16.05
2023-03-19T04:07:11.277Z,16.42
2023-03-19T04:09:39.760Z,18.33
2023-03-19T04:12:07.024Z,17.23
2023-03-19T04:14:34.017Z,17.23
2023-03-19T04:17:01.041Z,17.15
2023-03-19T04:19:28.125Z,16.23
2023-03-19T04:21:55.097Z,16.92
2023-03-19T04:24:22.105Z,16.73
2023-03-19T04:26:50.444Z,16.10
2023-03-19T04:29:17.397Z,15.55
2023-03-19T04:31:44.766Z,16.63
2023-03-19T04:34:12.011Z,16.67
2023-03-19T04:36:39.009Z,16.70
2023-03-19T04:39:06.169Z,16.73
2023-03-19T04:41:33.236Z,16.67
2023-03-19T04:44:01.689Z,16.20
2023-03-19T04:46:28.773Z,14.57
2023-03-19T04:48:55.733Z,14.98
2023-03-19T04:51:22.717Z,14.32
2023-03-19T04:53:49.796Z,13.70
2023-03-19T04:56:16.768Z,14.85
2023-03-19T04:58:43.770Z,14.32
2023-03-19T05:01:12.219Z,13.57
2023-03-19T05:03:39.259Z,12.70
2023-03-19T05:06:06.481Z,12.82
2023-03-19T05:08:33.638Z,12.10
2023-03-19T05:11:00.756Z,11.98
2023-03-19T05:13:27.835Z,11.82
2023-03-19T05:15:55.899Z,11.38
2023-03-19T05:18:24.637Z,11.30
2023-03-19T05:20:51.720Z,10.80
2023-03-19T05:23:18.913Z,10.30
2023-03-19T05:25:45.877Z,9.70
2023-03-19T05:28:13.036Z,10.63
2023-03-19T05:30:40.635Z,11.00
2023-03-19T05:33:07.847Z,10.15
2023-03-19T05:35:38.707Z,8.98
2023-03-19T05:38:05.729Z,9.38
2023-03-19T05:40:33.229Z,9.52
2023-03-19T05:43:00.363Z,9.50
2023-03-19T05:45:27.488Z,9.07
2023-03-19T05:47:54.433Z,10.20
2023-03-19T05:50:21.423Z,9.20
2023-03-19T05:52:49.803Z,9.20
2023-03-19T05:55:16.901Z,10.02
2023-03-19T05:57:43.833Z,9.82
2023-03-19T06:00:13.419Z,10.75
2023-03-19T06:02:40.413Z,10.07
2023-03-19T06:05:08.242Z,10.48
2023-03-19T06:07:35.339Z,11.05
2023-03-19T06:10:04.399Z,11.52
2023-03-19T06:12:31.443Z,11.45
2023-03-19T06:14:58.390Z,11.90
2023-03-19T06:17:25.541Z,12.27
2023-03-19T06:19:52.505Z,11.85
2023-03-19T06:22:19.545Z,12.48
2023-03-19T06:24:46.548Z,12.02
2023-03-19T06:27:14.925Z,12.73
2023-03-19T06:29:41.992Z,12.48
2023-03-19T06:32:09.862Z,12.18
2023-03-19T06:34:37.793Z,12.02
2023-03-19T06:37:04.870Z,13.02
2023-03-19T06:39:31.946Z,11.48
2023-03-19T06:41:58.971Z,12.73
2023-03-19T06:44:27.370Z,13.75
2023-03-19T06:46:54.417Z,13.27
2023-03-19T06:49:21.453Z,13.20
2023-03-19T06:51:48.498Z,13.55
2023-03-19T06:54:15.485Z,13.85
2023-03-19T06:56:43.114Z,13.50
2023-03-19T06:59:10.068Z,14.15
2023-03-19T07:01:38.393Z,13.20
2023-03-19T07:04:05.429Z,14.40
2023-03-19T09:14:09.446Z,7.75
2023-03-19T12:28:55.448Z,9.02
2023-03-19T12:35:25.059Z,9.90
2023-03-19T12:53:36.311Z,15.05
2023-03-19T12:56:14.952Z,15.48
2023-03-19T12:58:58.620Z,15.00
2023-03-19T13:01:37.653Z,13.25
2023-03-19T13:04:17.456Z,12.88
2023-03-19T13:07:02.360Z,11.85
2023-03-19T13:09:43.758Z,10.07
2023-03-19T13:12:23.074Z,9.73
2023-03-19T13:15:02.808Z,8.65
2023-03-19T13:17:41.839Z,8.10
2023-03-19T13:20:25.424Z,7.07
2023-03-19T13:23:02.282Z,8.80
2023-03-19T13:25:45.887Z,8.10
2023-03-19T13:28:33.296Z,6.65
2023-03-19T13:31:08.850Z,7.43
2023-03-19T13:33:41.881Z,6.97
2023-03-19T13:36:19.201Z,7.85
2023-03-19T13:38:54.516Z,8.25
2023-03-19T13:42:02.571Z,8.48
2023-03-19T13:44:40.988Z,8.57
2023-03-19T13:47:49.067Z,8.40
2023-03-19T13:50:50.594Z,8.65
2023-03-19T13:53:41.978Z,9.15
2023-03-19T13:56:29.674Z,9.25
2023-03-19T13:59:36.974Z,8.95
2023-03-19T14:02:53.118Z,8.75
2023-03-19T14:05:21.188Z,9.45
2023-03-19T14:07:53.069Z,9.52
2023-03-19T14:10:25.147Z,8.95
2023-03-19T14:13:01.382Z,8.35
2023-03-19T14:15:29.443Z,9.52
2023-03-19T14:18:00.966Z,8.60
2023-03-19T14:20:39.353Z,8.40
2023-03-19T14:23:38.582Z,8.57
2023-03-19T14:26:17.260Z,9.80
2023-03-19T14:28:54.975Z,8.90
2023-03-19T14:31:28.656Z,9.48
2023-03-19T14:34:06.110Z,8.88
2023-03-19T14:36:36.762Z,9.57
2023-03-19T14:39:12.654Z,9.00
2023-03-19T14:41:45.059Z,8.95
2023-03-19T14:44:42.945Z,8.57
2023-03-19T14:47:32.074Z,7.75
2023-03-19T14:50:19.794Z,7.18
2023-03-19T14:52:51.734Z,7.85
2023-03-19T14:55:18.789Z,7.10
2023-03-19T14:57:45.894Z,8.07
2023-03-19T15:00:16.713Z,7.50
2023-03-19T15:02:45.119Z,7.38
2023-03-19T15:05:21.778Z,8.02
2023-03-19T15:07:52.712Z,5.90
2023-03-19T15:10:22.050Z,5.97
2023-03-19T15:13:06.413Z,5.63
2023-03-19T15:15:49.801Z,5.57
2023-03-19T15:18:19.272Z,5.97
2023-03-19T15:20:51.762Z,6.22
2023-03-19T15:23:27.484Z,5.32
2023-03-19T15:25:56.993Z,5.35
2023-03-19T15:28:25.527Z,6.38
2023-03-19T15:31:05.834Z,6.18
2023-03-19T15:33:42.664Z,6.47
2023-03-19T15:36:20.257Z,6.07
2023-03-19T15:38:51.547Z,5.88
2023-03-19T15:41:19.785Z,7.00
2023-03-19T15:43:47.089Z,6.40
2023-03-19T15:46:18.857Z,6.85
2023-03-19T15:48:49.631Z,6.40
2023-03-19T15:51:19.381Z,7.35
2023-03-19T15:53:47.622Z,7.05
2023-03-19T15:56:18.360Z,7.53
2023-03-19T15:58:47.291Z,7.82
2023-03-19T16:01:16.599Z,7.35
2023-03-19T16:03:46.536Z,6.85
2023-03-19T16:06:20.854Z,7.50
2023-03-19T16:08:50.848Z,6.20
2023-03-19T16:11:28.603Z,7.63
2023-03-19T16:13:58.376Z,7.25
2023-03-19T16:16:31.732Z,7.13
2023-03-19T16:18:59.346Z,6.90
2023-03-19T16:21:32.897Z,7.00
2023-03-19T16:24:03.367Z,6.82
2023-03-19T16:26:36.723Z,6.55
2023-03-19T16:29:11.608Z,6.57
2023-03-19T16:34:30.677Z,6.45
2023-03-19T16:36:59.609Z,6.20
2023-03-19T16:39:33.281Z,5.82
2023-03-19T16:42:26.828Z,5.80
2023-03-19T16:44:54.715Z,6.43
2023-03-19T16:47:23.042Z,5.82
2023-03-19T16:49:50.086Z,5.22
2023-03-19T16:52:20.480Z,6.22
2023-03-19T16:54:49.244Z,5.75
2023-03-19T16:57:18.384Z,6.55
2023-03-19T16:59:46.700Z,6.07
2023-03-19T17:02:15.193Z,6.38
2023-03-19T17:04:42.463Z,6.40
2023-03-19T17:07:10.139Z,6.78
2023-03-19T17:09:37.469Z,5.93
2023-03-19T17:12:08.346Z,7.15
2023-03-19T17:14:36.201Z,7.00
2023-03-19T17:17:03.845Z,6.85
2023-03-19T17:19:35.092Z,6.45
2023-03-19T17:22:02.251Z,6.75
2023-03-19T17:24:30.973Z,6.25
2023-03-19T17:26:59.810Z,5.82
2023-03-19T17:29:28.635Z,5.20
2023-03-19T17:31:57.677Z,5.63
2023-03-19T17:34:27.203Z,5.38
2023-03-19T17:36:56.463Z,5.65
2023-03-19T17:39:24.057Z,5.55
2023-03-19T17:41:51.699Z,5.72
2023-03-19T17:44:18.739Z,5.78
2023-03-19T17:46:49.112Z,5.63
2023-03-19T17:49:20.963Z,5.13
2023-03-19T17:51:48.666Z,6.07
2023-03-19T17:54:16.503Z,5.80
2023-03-19T17:56:43.731Z,5.65
2023-03-19T17:59:11.041Z,6.40
2023-03-19T18:01:40.242Z,5.35
2023-03-19T18:04:12.914Z,5.78
2023-03-19T18:06:41.692Z,5.82
2023-03-19T18:09:16.952Z,5.55
2023-03-19T18:11:43.951Z,5.80
2023-03-19T18:14:10.998Z,5.15
2023-03-19T18:16:38.352Z,5.20
2023-03-19T18:19:18.935Z,4.43
2023-03-19T18:21:46.023Z,4.65
2023-03-19T18:24:13.063Z,4.90
2023-03-19T18:26:40.036Z,4.30
2023-03-19T18:29:07.136Z,4.57
2023-03-19T18:31:34.146Z,4.38
2023-03-19T18:34:04.619Z,4.20
2023-03-19T18:36:34.148Z,4.50
2023-03-19T18:39:01.290Z,4.35
2023-03-19T18:41:28.756Z,4.22
2023-03-19T18:43:56.023Z,4.55
2023-03-19T18:46:25.950Z,4.22
2023-03-19T18:48:54.405Z,4.38
2023-03-19T18:51:21.568Z,4.18
2023-03-19T18:53:50.080Z,4.40
2023-03-19T18:56:22.654Z,7.93
2023-03-19T18:58:50.241Z,5.47
2023-03-19T19:01:18.015Z,7.55
2023-03-19T19:03:46.366Z,5.43
2023-03-19T19:06:20.551Z,5.10
2023-03-19T19:08:49.249Z,5.07
2023-03-19T19:11:18.038Z,5.50
2023-03-19T19:13:55.924Z,5.97
2023-03-19T19:16:29.277Z,5.07
2023-03-19T19:18:56.422Z,5.68
2023-03-19T19:21:23.560Z,6.18
2023-03-19T19:23:51.983Z,7.05
2023-03-19T19:26:22.770Z,5.65
2023-03-19T19:28:50.372Z,6.13
2023-03-19T19:31:23.936Z,6.60
2023-03-19T19:33:51.046Z,5.85
2023-03-19T19:36:18.001Z,6.18
2023-03-19T19:38:45.036Z,5.35
2023-03-19T19:41:16.688Z,6.07
2023-03-19T19:43:45.553Z,6.28
2023-03-19T19:46:14.245Z,6.65
2023-03-19T19:48:41.310Z,6.78
2023-03-19T19:51:09.513Z,7.72
2023-03-19T19:53:36.637Z,7.03
2023-03-19T19:56:14.466Z,6.30
2023-03-19T19:58:42.422Z,7.05
2023-03-19T20:01:15.767Z,6.93
2023-03-19T20:03:43.474Z,9.93
2023-03-19T20:06:10.990Z,10.00
2023-03-19T20:08:38.412Z,10.20
2023-03-19T20:11:16.274Z,7.78
2023-03-19T20:13:44.306Z,6.82
2023-03-19T20:16:11.718Z,7.03
2023-03-19T20:18:38.894Z,7.35
2023-03-19T20:21:06.214Z,6.25
2023-03-19T20:23:33.201Z,8.63
2023-03-19T20:26:01.092Z,7.53
2023-03-19T20:28:31.902Z,7.13
2023-03-19T20:31:00.240Z,6.82
2023-03-19T20:33:27.345Z,6.60
2023-03-19T20:35:55.367Z,7.45
2023-03-19T20:38:22.583Z,7.00
2023-03-19T20:40:51.688Z,7.22
2023-03-19T20:43:28.203Z,7.35
2023-03-19T20:45:57.783Z,8.35
2023-03-19T20:48:26.073Z,8.65
2023-03-19T20:50:53.296Z,8.93
2023-03-19T20:53:20.654Z,8.68
2023-03-19T20:55:48.519Z,9.25
2023-03-19T20:58:25.622Z,9.80
2023-03-19T21:00:52.620Z,10.85
2023-03-19T21:03:22.983Z,12.05
2023-03-19T21:05:52.588Z,11.68
2023-03-19T21:08:28.486Z,11.50
2023-03-19T21:10:55.769Z,9.85
2023-03-19T21:13:22.777Z,10.68
2023-03-19T21:15:50.098Z,11.70
2023-03-19T21:18:17.411Z,12.13
2023-03-19T21:20:49.197Z,11.45
2023-03-19T21:23:20.092Z,12.02
2023-03-19T21:25:48.178Z,13.95
2023-03-19T21:28:22.498Z,14.00
2023-03-19T21:30:50.083Z,13.40
2023-03-19T21:33:22.929Z,13.50
2023-03-19T21:35:51.917Z,12.18
2023-03-19T21:38:18.891Z,12.13
2023-03-19T21:40:46.324Z,12.93
2023-03-19T21:43:18.755Z,12.50
2023-03-19T21:45:47.054Z,13.02
2023-03-19T21:48:23.972Z,12.75
2023-03-19T21:50:53.096Z,13.10
2023-03-19T21:53:20.649Z,12.30
2023-03-19T21:55:48.268Z,13.05
2023-03-19T21:58:17.826Z,11.80
2023-03-19T22:00:45.801Z,13.35
2023-03-19T22:03:17.359Z,12.90
2023-03-19T22:05:45.343Z,12.63
2023-03-19T22:08:16.071Z,13.30
2023-03-19T22:10:44.173Z,12.25
2023-03-19T22:13:18.722Z,12.90
2023-03-19T22:15:45.920Z,12.68
2023-03-19T22:18:14.547Z,12.35
2023-03-19T22:20:42.312Z,12.15
2023-03-19T22:23:09.756Z,12.50
2023-03-19T22:25:41.950Z,12.48
2023-03-19T22:28:15.528Z,12.20
2023-03-19T22:30:42.920Z,12.18
2023-03-19T22:33:14.719Z,12.25
2023-03-19T22:35:42.186Z,12.32
2023-03-19T22:38:09.200Z,12.75
2023-03-19T22:40:39.448Z,12.02
2023-03-19T22:43:15.642Z,12.65
2023-03-19T22:45:43.331Z,13.38
2023-03-19T22:48:14.105Z,12.40
2023-03-19T22:50:41.241Z,13.07
2023-03-19T22:53:22.276Z,12.57
2023-03-19T22:55:50.869Z,12.70
2023-03-19T22:58:18.120Z,12.52
2023-03-19T23:00:45.901Z,12.23
2023-03-19T23:03:18.624Z,11.48
2023-03-19T23:05:48.875Z,12.82
2023-03-19T23:08:17.336Z,12.95
2023-03-19T23:10:44.811Z,12.45
2023-03-19T23:13:13.429Z,12.32
2023-03-19T23:15:41.518Z,12.27
2023-03-19T23:18:16.443Z,11.65
2023-03-19T23:23:13.118Z,12.48
2023-03-19T23:25:40.713Z,12.25
2023-03-19T23:28:18.164Z,12.00
2023-03-19T23:30:45.306Z,12.55
2023-03-19T23:33:12.858Z,12.00
2023-03-19T23:35:39.994Z,11.43
2023-03-19T23:38:07.061Z,11.80
2023-03-19T23:40:34.484Z,12.38
2023-03-19T23:43:01.918Z,11.77
2023-03-19T23:45:33.408Z,12.65
2023-03-19T23:48:03.084Z,11.82
2023-03-19T23:50:30.950Z,11.73
2023-03-19T23:52:58.458Z,11.70
2023-03-19T23:55:26.200Z,11.73
2023-03-19T23:57:54.077Z,11.98
